Flugplatz - Wetter - Augsburg

[Quelle: ADDS]
METAR
EDMA 241750Z 21004KT CAVOK 10/05 Q1014 =
TAF
EDMA 241700Z 2418/2503 22006KT CAVOK =
SR / SS: 06:40 / 15:31 UTC (Günzburg 2017-11-24)

Flugplatz - Wetter - Laupheim

[Quelle: ADDS]
METAR
ETHL 241720Z 24005KT 9999 FEW090 BKN130 10/04 Q1014 BLU =
TAF

Notice: Undefined index: sun in /homepages/1/d158740339/htdocs/joomla/modules/mod_wx/tmpl/default.php on line 13

Flugplatz - Wetter - Memmingen

[Quelle: ADDS]
METAR
EDJA 241750Z 19006KT CAVOK 08/04 Q1015 =
TAF
EDJA 241700Z 2418/2503 23008KT CAVOK =

Notice: Undefined index: sun in /homepages/1/d158740339/htdocs/joomla/modules/mod_wx/tmpl/default.php on line 13

Flugplatz - Wetter - Neuburg/Donau

[Quelle: ADDS]
METAR
ETSN 241720Z 00000KT 9999 SCT050 SCT110 BKN150 09/06 Q1014 BLU =
TAF
ETSN 241700Z 2418/2503 23005KT 9999 NSW SCT030 BKN070 BY ETGL =

Notice: Undefined index: sun in /homepages/1/d158740339/htdocs/joomla/modules/mod_wx/tmpl/default.php on line 13

Flugplatz - Wetter - Stuttgart

[Quelle: ADDS]
METAR
EDDS 241750Z 22007KT 180V250 9999 FEW035 BKN066 11/08 Q1013 NOSIG =
TAF
EDDS 241700Z 2418/2518 22004KT 9999 FEW020 BKN040 PROB30 TEMPO 2418/2505 RA BECMG 2504/2507 29009KT TEMPO 2505/2513 3500 RA BKN010 TEMPO 2513/2518 SHRASN BKN012 BKN020CB =

Notice: Undefined index: sun in /homepages/1/d158740339/htdocs/joomla/modules/mod_wx/tmpl/default.php on line 13

Flugplatz - Wetter - Niederstetten

[Quelle: ADDS]
METAR
ETHN 241720Z 22011KT 9999 BKN044 OVC090 10/08 Q1013 BLU =
TAF

Notice: Undefined index: sun in /homepages/1/d158740339/htdocs/joomla/modules/mod_wx/tmpl/default.php on line 13